Time;durP1;ratioP1;P1;durP2;ratioP2;P2;SDS_P1;SDS_P2;PMS_P1;PMS_P2;Temp;Humidity;BMP_temperature;BMP_pressure;BME280_temperature;BME280_humidity;BME280_pressure;Samples;Min_cycle;Max_cycle;Signal;HPM_P1;HPM_P2
2020/12/08 00:01:50;;;;;;;19.23;14.03;;;1.90;99.90;;;;;;4973935;28;20226;-76
2020/12/08 00:04:16;;;;;;;19.05;13.48;;;1.90;99.90;;;;;;4968705;28;20451;-76
2020/12/08 00:06:42;;;;;;;23.67;15.23;;;1.90;99.90;;;;;;4971257;28;20186;-76
2020/12/08 00:09:08;;;;;;;24.92;16.17;;;1.90;99.90;;;;;;4972859;28;20182;-76
2020/12/08 00:11:33;;;;;;;20.37;14.40;;;1.90;99.90;;;;;;4973409;28;20274;-77
2020/12/08 00:14:00;;;;;;;22.33;14.30;;;1.80;99.90;;;;;;4971945;28;20178;-77
2020/12/08 00:16:25;;;;;;;17.83;13.98;;;1.80;99.90;;;;;;4971400;28;20186;-77
2020/12/08 00:18:51;;;;;;;19.20;13.33;;;1.80;99.90;;;;;;4973360;28;20199;-77
2020/12/08 00:21:17;;;;;;;22.20;13.93;;;1.80;99.90;;;;;;4972713;28;20211;-76
2020/12/08 00:23:45;;;;;;;20.42;14.52;;;1.70;99.90;;;;;;4973588;28;20203;-76
2020/12/08 00:26:13;;;;;;;20.60;15.30;;;1.80;99.90;;;;;;4965917;28;20570;-76
2020/12/08 00:28:39;;;;;;;19.60;14.50;;;1.80;99.90;;;;;;4973003;28;20609;-76
2020/12/08 00:31:05;;;;;;;22.30;14.85;;;1.80;99.90;;;;;;4955491;28;20215;-76
2020/12/08 00:33:31;;;;;;;20.87;14.77;;;1.70;99.90;;;;;;4956046;28;20187;-76
2020/12/08 00:35:58;;;;;;;22.23;15.00;;;1.70;99.90;;;;;;4970639;28;20721;-76
2020/12/08 00:38:25;;;;;;;21.33;13.63;;;1.70;99.90;;;;;;4973008;28;20202;-76
2020/12/08 00:40:51;;;;;;;16.75;12.48;;;1.70;99.90;;;;;;4972613;28;20211;-76
2020/12/08 00:43:17;;;;;;;18.17;13.77;;;1.70;99.90;;;;;;4973806;28;20171;-76
2020/12/08 00:45:44;;;;;;;20.30;14.73;;;1.70;99.90;;;;;;4971031;28;20254;-76
2020/12/08 00:48:10;;;;;;;20.48;13.48;;;1.60;99.90;;;;;;4970860;28;20227;-76
2020/12/08 00:50:36;;;;;;;25.50;13.80;;;1.60;99.90;;;;;;4972586;28;20242;-76
2020/12/08 00:53:02;;;;;;;23.93;13.57;;;1.60;99.90;;;;;;4973145;28;20422;-77
2020/12/08 00:55:27;;;;;;;20.73;12.30;;;1.60;99.90;;;;;;4972148;28;20218;-77
2020/12/08 00:57:54;;;;;;;20.83;14.83;;;1.60;99.90;;;;;;4969204;28;20567;-77
2020/12/08 01:00:19;;;;;;;21.52;13.07;;;1.60;99.90;;;;;;4972132;28;20618;-77
2020/12/08 01:02:46;;;;;;;19.00;13.50;;;1.60;99.90;;;;;;4972991;28;20234;-76
2020/12/08 01:05:12;;;;;;;20.92;14.65;;;1.60;99.90;;;;;;4972514;28;20570;-77
2020/12/08 01:07:39;;;;;;;18.97;12.77;;;1.60;99.90;;;;;;4969106;28;20709;-77
2020/12/08 01:10:05;;;;;;;19.20;12.65;;;1.60;99.90;;;;;;4971902;28;20242;-76
2020/12/08 01:12:31;;;;;;;20.70;14.18;;;1.60;99.90;;;;;;4972896;28;20181;-77
2020/12/08 01:14:57;;;;;;;19.40;13.60;;;1.60;99.90;;;;;;4968702;28;20680;-77
2020/12/08 01:17:23;;;;;;;17.40;12.97;;;1.60;99.90;;;;;;4965469;28;20175;-76
2020/12/08 01:19:48;;;;;;;21.93;13.30;;;1.60;99.90;;;;;;4971904;28;20462;-76
2020/12/08 01:22:14;;;;;;;17.67;12.00;;;1.50;99.90;;;;;;4972184;28;20514;-76
2020/12/08 01:24:40;;;;;;;18.33;12.70;;;1.50;99.90;;;;;;4971234;28;20211;-76
2020/12/08 01:27:05;;;;;;;21.83;12.77;;;1.50;99.90;;;;;;4969761;28;20171;-76
2020/12/08 01:29:31;;;;;;;21.17;13.63;;;1.50;99.90;;;;;;4972198;28;20203;-76
2020/12/08 01:31:57;;;;;;;19.53;13.10;;;1.50;99.90;;;;;;4980743;28;20684;-77
2020/12/08 01:34:22;;;;;;;19.20;12.83;;;1.40;99.90;;;;;;4980497;28;20298;-76
2020/12/08 01:36:51;;;;;;;20.23;12.93;;;1.50;99.90;;;;;;4966564;28;20171;-76
2020/12/08 01:39:17;;;;;;;21.88;11.45;;;1.40;99.90;;;;;;4971612;28;20297;-76
2020/12/08 01:41:42;;;;;;;22.40;12.80;;;1.40;99.90;;;;;;4972211;28;20607;-76
2020/12/08 01:44:08;;;;;;;16.00;10.93;;;1.40;99.90;;;;;;4971775;28;20232;-76
2020/12/08 01:46:36;;;;;;;20.57;12.77;;;1.40;99.90;;;;;;4968357;28;20183;-76
2020/12/08 01:49:02;;;;;;;16.30;10.18;;;1.40;99.90;;;;;;4971830;28;20615;-76
2020/12/08 01:51:28;;;;;;;22.58;13.45;;;1.40;99.90;;;;;;4955092;28;20195;-76
2020/12/08 01:53:54;;;;;;;15.95;10.75;;;1.40;99.90;;;;;;4971933;28;20183;-76
2020/12/08 01:56:20;;;;;;;15.95;11.13;;;1.40;99.90;;;;;;4958412;28;20265;-76
2020/12/08 01:58:46;;;;;;;21.60;9.95;;;1.40;99.90;;;;;;4975885;28;20294;-76
2020/12/08 02:01:14;;;;;;;15.70;10.90;;;1.40;99.90;;;;;;4975564;28;20305;-76
2020/12/08 02:03:41;;;;;;;16.42;11.00;;;1.40;99.90;;;;;;4976121;28;20214;-76
2020/12/08 02:06:07;;;;;;;13.82;10.15;;;1.30;99.90;;;;;;4955109;28;20241;-77
2020/12/08 02:08:34;;;;;;;18.08;10.75;;;1.40;99.90;;;;;;4976217;28;20187;-76
2020/12/08 02:11:00;;;;;;;18.30;12.02;;;1.40;99.90;;;;;;4957822;28;20663;-76
2020/12/08 02:13:27;;;;;;;18.27;10.60;;;1.40;99.90;;;;;;4975674;28;20183;-77
2020/12/08 02:15:53;;;;;;;14.40;10.43;;;1.30;99.90;;;;;;4967778;28;20572;-77
2020/12/08 02:18:20;;;;;;;15.30;10.20;;;1.30;99.90;;;;;;4974280;28;20203;-76
2020/12/08 02:20:46;;;;;;;16.15;10.60;;;1.30;99.90;;;;;;4975154;28;20849;-76
2020/12/08 02:23:11;;;;;;;15.23;10.85;;;1.30;99.90;;;;;;4975573;28;20258;-76
2020/12/08 02:25:41;;;;;;;14.67;9.60;;;1.30;99.90;;;;;;4974748;28;20294;-76
2020/12/08 02:28:08;;;;;;;13.15;9.85;;;1.30;99.90;;;;;;4972700;28;20550;-77
2020/12/08 02:30:34;;;;;;;17.25;10.95;;;1.30;99.90;;;;;;4975032;28;20245;-76
2020/12/08 02:33:00;;;;;;;17.08;10.95;;;1.30;99.90;;;;;;4957898;28;20207;-76
2020/12/08 02:35:25;;;;;;;13.10;8.87;;;1.20;99.90;;;;;;4956811;28;20245;-75
2020/12/08 02:37:51;;;;;;;13.33;10.03;;;1.20;99.90;;;;;;4972865;28;20238;-77
2020/12/08 02:40:17;;;;;;;21.00;10.27;;;1.20;99.90;;;;;;4974732;28;20203;-76
2020/12/08 02:42:44;;;;;;;14.83;10.17;;;1.20;99.90;;;;;;4975239;28;20202;-76
2020/12/08 02:45:11;;;;;;;18.08;10.07;;;1.30;99.90;;;;;;4948922;28;20630;-76
2020/12/08 02:47:37;;;;;;;15.27;9.93;;;1.30;99.90;;;;;;4952722;28;20282;-76
2020/12/08 02:50:04;;;;;;;19.77;11.32;;;1.20;99.90;;;;;;4974274;28;20212;-75
2020/12/08 02:52:32;;;;;;;18.63;11.55;;;1.20;99.90;;;;;;4957663;28;20262;-76
2020/12/08 02:54:58;;;;;;;14.65;9.50;;;1.20;99.90;;;;;;4973329;28;20211;-76
2020/12/08 02:57:23;;;;;;;16.47;11.13;;;1.20;99.90;;;;;;4964212;28;20307;-75
2020/12/08 02:59:49;;;;;;;18.67;10.93;;;1.10;99.90;;;;;;4974330;28;20215;-76
2020/12/08 03:02:15;;;;;;;16.70;9.60;;;1.10;99.90;;;;;;4974390;28;20203;-75
2020/12/08 03:04:40;;;;;;;13.93;10.07;;;1.10;99.90;;;;;;4974478;28;20211;-76
2020/12/08 03:07:06;;;;;;;15.37;10.63;;;1.10;99.90;;;;;;4968885;28;20183;-77
2020/12/08 03:09:32;;;;;;;16.03;9.60;;;1.10;99.90;;;;;;4972994;28;20207;-76
2020/12/08 03:11:57;;;;;;;18.40;10.90;;;1.10;99.90;;;;;;4974763;28;20554;-76
2020/12/08 03:14:23;;;;;;;18.53;10.57;;;1.00;99.90;;;;;;4974070;28;20836;-76
2020/12/08 03:16:49;;;;;;;15.40;10.40;;;1.10;99.90;;;;;;4963876;28;20211;-76
2020/12/08 03:19:14;;;;;;;13.63;9.77;;;1.20;99.90;;;;;;4958590;28;20237;-76
2020/12/08 03:21:40;;;;;;;14.00;10.17;;;1.20;99.90;;;;;;4974530;28;20195;-75
2020/12/08 03:24:05;;;;;;;15.30;10.13;;;1.20;99.90;;;;;;4973517;28;20179;-75
2020/12/08 03:26:31;;;;;;;15.40;10.60;;;1.20;99.90;;;;;;4965145;28;20179;-75
2020/12/08 03:28:57;;;;;;;18.77;11.77;;;1.20;99.90;;;;;;4973427;28;20176;-76
2020/12/08 03:31:23;;;;;;;16.67;9.80;;;1.10;99.90;;;;;;4974400;28;20313;-75
2020/12/08 03:33:48;;;;;;;17.30;11.40;;;1.10;99.90;;;;;;4974487;28;20176;-76
2020/12/08 03:36:18;;;;;;;16.60;10.60;;;1.10;99.90;;;;;;4964320;28;20873;-76
2020/12/08 03:38:50;;;;;;;14.02;10.48;;;1.20;99.90;;;;;;4970877;28;20194;-76
2020/12/08 03:41:22;;;;;;;18.08;10.63;;;1.20;99.90;;;;;;4973249;28;20203;-76
2020/12/08 03:43:49;;;;;;;13.00;10.00;;;1.20;99.90;;;;;;4974136;28;20233;-76
2020/12/08 03:46:33;;;;;;;14.05;9.38;;;1.10;99.90;;;;;;4965254;28;20204;-76
2020/12/08 03:48:58;;;;;;;15.23;10.90;;;1.10;99.90;;;;;;4969544;28;20229;-76
2020/12/08 03:51:24;;;;;;;19.73;11.80;;;1.10;99.90;;;;;;4956197;28;20720;-76
2020/12/08 03:53:50;;;;;;;15.87;10.43;;;1.10;99.90;;;;;;4973624;28;20179;-76
2020/12/08 03:56:18;;;;;;;15.43;10.37;;;1.10;99.90;;;;;;4963002;28;20266;-75
2020/12/08 03:58:44;;;;;;;13.18;9.75;;;1.10;99.90;;;;;;4956104;28;20302;-75
2020/12/08 04:01:21;;;;;;;15.98;10.35;;;1.10;99.90;;;;;;4973476;28;20250;-75
2020/12/08 04:03:48;;;;;;;18.55;10.38;;;1.10;99.90;;;;;;4973277;28;20212;-75
2020/12/08 04:06:14;;;;;;;15.35;9.98;;;1.10;99.90;;;;;;4969949;28;20285;-75
2020/12/08 04:08:40;;;;;;;15.65;11.50;;;1.00;99.90;;;;;;4972384;28;20258;-76
2020/12/08 04:11:06;;;;;;;17.95;11.10;;;1.00;99.90;;;;;;4972844;28;20273;-75
2020/12/08 04:13:32;;;;;;;15.10;10.00;;;1.00;99.90;;;;;;4973583;28;20262;-76
2020/12/08 04:15:58;;;;;;;12.60;9.70;;;1.00;99.90;;;;;;4967671;28;20238;-76
2020/12/08 04:18:24;;;;;;;13.00;9.90;;;0.90;99.90;;;;;;4972779;28;20485;-75
2020/12/08 04:20:49;;;;;;;19.00;10.33;;;0.80;99.90;;;;;;4955070;28;21043;-75
2020/12/08 04:23:17;;;;;;;13.07;9.73;;;0.80;99.90;;;;;;4973012;28;20217;-75
2020/12/08 04:25:43;;;;;;;16.38;11.55;;;0.80;99.90;;;;;;4962751;28;20211;-75
2020/12/08 04:28:09;;;;;;;13.10;9.40;;;0.80;99.90;;;;;;4971129;28;20178;-76
2020/12/08 04:30:36;;;;;;;15.57;9.70;;;0.80;99.90;;;;;;4972838;28;20459;-75
2020/12/08 04:33:03;;;;;;;14.75;10.27;;;0.80;99.90;;;;;;4973473;28;20454;-75
2020/12/08 04:35:28;;;;;;;16.27;11.32;;;0.80;99.90;;;;;;4947079;28;20338;-75
2020/12/08 04:37:54;;;;;;;16.80;9.77;;;0.80;99.90;;;;;;4963252;28;20289;-76
2020/12/08 04:40:20;;;;;;;15.60;11.27;;;0.90;99.90;;;;;;4972585;28;20915;-75
2020/12/08 04:42:47;;;;;;;15.75;10.55;;;1.00;99.90;;;;;;4955748;28;20230;-76
2020/12/08 04:45:14;;;;;;;18.92;11.40;;;1.10;99.90;;;;;;4968702;28;20294;-76
2020/12/08 04:47:43;;;;;;;15.00;9.75;;;1.10;99.90;;;;;;4972579;28;20280;-75
2020/12/08 04:50:13;;;;;;;17.92;10.13;;;1.10;99.90;;;;;;4972408;28;20211;-75
2020/12/08 04:52:39;;;;;;;15.70;9.15;;;1.10;99.90;;;;;;4973314;28;20179;-75
2020/12/08 04:55:05;;;;;;;13.50;9.65;;;1.10;99.90;;;;;;4964855;28;20235;-75
2020/12/08 04:57:31;;;;;;;18.53;10.10;;;1.10;99.90;;;;;;4965812;28;20669;-75
2020/12/08 05:00:02;;;;;;;16.20;10.77;;;1.20;99.90;;;;;;4954887;28;20701;-75
2020/12/08 05:02:28;;;;;;;16.20;9.63;;;1.20;99.90;;;;;;4972821;28;20793;-76
2020/12/08 05:04:55;;;;;;;16.80;12.33;;;1.20;99.90;;;;;;4955088;28;20310;-76
2020/12/08 05:07:28;;;;;;;13.48;11.45;;;1.20;99.90;;;;;;4966079;28;20710;-76
2020/12/08 05:09:54;;;;;;;17.00;10.32;;;1.30;99.90;;;;;;4972519;28;20257;-76
2020/12/08 05:12:24;;;;;;;17.33;11.00;;;1.30;99.90;;;;;;4972135;28;20203;-76
2020/12/08 05:14:50;;;;;;;16.13;10.65;;;1.40;99.90;;;;;;4968235;28;20211;-76
2020/12/08 05:17:27;;;;;;;16.83;10.70;;;1.40;99.90;;;;;;4970353;28;20186;-76
2020/12/08 05:20:07;;;;;;;19.52;11.77;;;1.40;99.90;;;;;;4972249;28;20213;-75
2020/12/08 05:22:33;;;;;;;14.40;10.93;;;1.40;99.90;;;;;;4971901;28;20198;-75
2020/12/08 05:25:13;;;;;;;15.85;11.00;;;1.50;99.90;;;;;;4972222;28;20211;-76
2020/12/08 05:27:42;;;;;;;18.35;11.50;;;1.40;99.90;;;;;;4970779;28;20171;-76
2020/12/08 05:30:08;;;;;;;16.80;11.65;;;1.50;99.90;;;;;;4971699;28;20211;-76
2020/12/08 05:32:36;;;;;;;19.10;11.67;;;1.50;99.90;;;;;;4974030;28;20677;-76
2020/12/08 05:35:05;;;;;;;16.75;11.88;;;1.50;99.90;;;;;;4965761;28;20450;-76
2020/12/08 05:37:39;;;;;;;17.00;11.30;;;1.60;99.90;;;;;;4951399;28;20195;-76
2020/12/08 05:40:08;;;;;;;21.52;13.07;;;1.60;99.90;;;;;;4971008;28;20207;-76
2020/12/08 05:42:37;;;;;;;21.40;13.25;;;1.60;99.90;;;;;;4947442;28;20199;-76
2020/12/08 05:45:05;;;;;;;15.05;11.38;;;1.60;99.90;;;;;;4971497;28;20241;-76
2020/12/08 05:47:39;;;;;;;19.88;13.07;;;1.60;99.90;;;;;;4970282;28;20191;-76
2020/12/08 05:50:06;;;;;;;18.65;12.48;;;1.60;99.90;;;;;;4971810;28;20214;-76
2020/12/08 05:52:34;;;;;;;18.42;13.20;;;1.70;99.90;;;;;;4972257;28;20167;-76
2020/12/08 05:55:21;;;;;;;17.23;12.75;;;1.70;99.90;;;;;;4951056;28;20576;-76
2020/12/08 05:57:48;;;;;;;15.98;11.80;;;1.70;99.90;;;;;;4954112;28;20207;-76
2020/12/08 06:00:26;;;;;;;19.27;12.40;;;1.60;99.90;;;;;;4971167;28;20353;-76
2020/12/08 06:02:53;;;;;;;17.83;12.60;;;1.60;99.90;;;;;;4958613;28;20259;-76
2020/12/08 06:05:27;;;;;;;16.15;12.32;;;1.60;99.90;;;;;;4970667;28;20566;-76
2020/12/08 06:07:52;;;;;;;16.98;11.93;;;1.60;99.90;;;;;;4945097;28;20184;-76
2020/12/08 06:10:18;;;;;;;21.43;13.20;;;1.70;99.90;;;;;;4971017;28;20265;-76
2020/12/08 06:12:55;;;;;;;21.50;14.00;;;1.80;99.90;;;;;;4953659;28;20179;-76
2020/12/08 06:15:22;;;;;;;20.38;14.10;;;1.80;99.90;;;;;;4968141;28;20214;-76
2020/12/08 06:17:49;;;;;;;18.70;13.35;;;1.80;99.90;;;;;;4970555;28;20725;-76
2020/12/08 06:20:15;;;;;;;16.48;13.23;;;1.80;99.90;;;;;;4970143;28;20223;-76
2020/12/08 06:22:52;;;;;;;22.95;14.45;;;1.80;99.90;;;;;;4969990;28;20186;-76
2020/12/08 06:25:17;;;;;;;17.58;14.50;;;1.70;99.90;;;;;;4969468;28;20605;-76
2020/12/08 06:27:43;;;;;;;19.10;14.13;;;1.70;99.90;;;;;;4968913;28;20187;-76
2020/12/08 06:30:09;;;;;;;21.07;13.80;;;1.80;99.90;;;;;;4970315;28;20211;-76
2020/12/08 06:32:35;;;;;;;18.57;12.90;;;1.80;99.90;;;;;;4971145;28;20261;-76
2020/12/08 06:35:07;;;;;;;22.98;15.25;;;1.80;99.90;;;;;;4952594;28;20284;-76
2020/12/08 06:37:35;;;;;;;25.95;17.65;;;1.80;99.90;;;;;;4963947;28;20167;-76
2020/12/08 06:40:23;;;;;;;26.48;16.10;;;1.80;99.90;;;;;;4970636;28;20288;-76
2020/12/08 06:42:50;;;;;;;20.45;14.02;;;1.80;99.90;;;;;;4967894;28;20159;-77
2020/12/08 06:45:21;;;;;;;18.52;13.23;;;1.70;99.90;;;;;;4969795;28;20207;-77
2020/12/08 06:47:48;;;;;;;22.25;14.75;;;1.70;99.90;;;;;;4969144;28;20285;-77
2020/12/08 06:50:40;;;;;;;21.95;14.93;;;1.70;99.90;;;;;;4973925;28;20210;-76
2020/12/08 06:53:05;;;;;;;18.17;14.27;;;1.70;99.90;;;;;;4942136;28;20187;-76
2020/12/08 06:55:44;;;;;;;20.20;14.97;;;1.70;99.90;;;;;;4972952;28;20298;-76
2020/12/08 06:58:10;;;;;;;20.75;14.85;;;1.70;99.90;;;;;;4971778;28;20203;-77
2020/12/08 07:00:36;;;;;;;17.10;13.20;;;1.70;99.90;;;;;;4955782;28;20227;-76
2020/12/08 07:03:02;;;;;;;21.20;14.10;;;1.70;99.90;;;;;;4974610;28;20180;-77
2020/12/08 07:05:30;;;;;;;17.25;13.63;;;1.70;99.90;;;;;;4971272;28;20203;-76
2020/12/08 07:08:00;;;;;;;20.48;14.40;;;1.80;99.90;;;;;;4973256;28;20179;-77
2020/12/08 07:10:26;;;;;;;17.40;12.90;;;1.80;99.90;;;;;;4973068;28;20215;-77
2020/12/08 07:12:53;;;;;;;17.90;14.05;;;1.90;99.90;;;;;;4956597;28;20174;-77
2020/12/08 07:15:23;;;;;;;16.33;13.40;;;1.90;99.90;;;;;;4969486;28;20614;-77
2020/12/08 07:18:10;;;;;;;18.10;13.10;;;2.00;99.90;;;;;;4955529;28;20239;-77
2020/12/08 07:20:38;;;;;;;18.48;12.88;;;2.00;99.90;;;;;;4957702;28;20260;-77
2020/12/08 07:23:05;;;;;;;22.65;14.95;;;2.00;99.90;;;;;;4973904;28;20175;-77
2020/12/08 07:25:32;;;;;;;19.23;12.25;;;2.10;99.90;;;;;;4969565;28;20211;-77
2020/12/08 07:27:58;;;;;;;18.45;14.25;;;2.10;99.90;;;;;;4954270;28;20175;-77
2020/12/08 07:30:26;;;;;;;23.00;14.95;;;2.00;99.90;;;;;;4955952;28;20648;-77
2020/12/08 07:32:53;;;;;;;21.02;13.57;;;2.00;99.90;;;;;;4974041;28;20203;-77
2020/12/08 07:35:24;;;;;;;18.00;13.15;;;2.00;99.90;;;;;;4971222;28;20215;-77
2020/12/08 07:37:55;;;;;;;18.98;13.95;;;2.00;99.90;;;;;;4974059;28;20535;-77
2020/12/08 07:40:22;;;;;;;16.92;12.30;;;1.90;99.90;;;;;;4955641;28;20213;-77
2020/12/08 07:42:50;;;;;;;17.50;12.85;;;2.00;99.90;;;;;;4956027;28;20174;-77
2020/12/08 07:45:17;;;;;;;19.30;13.32;;;2.00;99.90;;;;;;4958089;28;20223;-78
2020/12/08 07:47:45;;;;;;;18.27;14.13;;;2.00;99.90;;;;;;4970266;28;20654;-78
2020/12/08 07:50:20;;;;;;;15.73;11.70;;;2.00;99.90;;;;;;4955293;28;20210;-78
2020/12/08 07:52:57;;;;;;;20.45;12.75;;;2.10;99.90;;;;;;4973807;28;20630;-78
2020/12/08 07:55:22;;;;;;;16.65;11.80;;;2.10;99.90;;;;;;4972332;28;20690;-78
2020/12/08 07:57:49;;;;;;;19.07;13.33;;;2.10;99.90;;;;;;4960721;28;20322;-78
2020/12/08 08:00:15;;;;;;;17.90;11.85;;;2.10;99.90;;;;;;4972579;28;20559;-77
2020/12/08 08:02:40;;;;;;;17.03;12.73;;;2.10;99.90;;;;;;4973264;28;20182;-78
2020/12/08 08:05:06;;;;;;;18.37;13.10;;;2.20;99.90;;;;;;4972951;28;20756;-77
2020/12/08 08:07:31;;;;;;;14.53;11.27;;;2.20;99.90;;;;;;4962357;28;20210;-78
2020/12/08 08:09:57;;;;;;;18.20;13.37;;;2.30;99.90;;;;;;4955224;28;20255;-77
2020/12/08 08:12:23;;;;;;;18.03;12.43;;;2.40;99.90;;;;;;4973051;28;20191;-77
2020/12/08 08:14:48;;;;;;;16.17;12.00;;;2.40;99.90;;;;;;4970660;28;20446;-77
2020/12/08 08:17:14;;;;;;;17.77;12.07;;;2.40;99.90;;;;;;4953140;28;20182;-78
2020/12/08 08:19:40;;;;;;;16.77;11.53;;;2.40;99.90;;;;;;4971667;28;20215;-78
2020/12/08 08:22:05;;;;;;;23.13;12.37;;;2.40;99.90;;;;;;4973392;28;20214;-78
2020/12/08 08:24:31;;;;;;;15.07;11.40;;;2.30;99.90;;;;;;4972768;28;20669;-78
2020/12/08 08:26:57;;;;;;;16.17;12.17;;;2.40;99.90;;;;;;4969743;28;20176;-78
2020/12/08 08:29:22;;;;;;;15.83;11.40;;;2.40;99.90;;;;;;4972210;28;20214;-77
2020/12/08 08:31:48;;;;;;;15.47;11.67;;;2.40;99.90;;;;;;4973598;28;20261;-78
2020/12/08 08:34:14;;;;;;;12.17;10.80;;;2.40;99.90;;;;;;4964971;28;20217;-78
2020/12/08 08:36:53;;;;;;;14.02;10.90;;;2.40;99.90;;;;;;4966939;28;20632;-78
2020/12/08 08:39:19;;;;;;;15.43;11.82;;;2.40;99.90;;;;;;4958421;28;20277;-77
2020/12/08 08:41:45;;;;;;;14.93;10.90;;;2.50;99.90;;;;;;4973232;28;20665;-77
2020/12/08 08:44:11;;;;;;;13.25;11.18;;;2.50;99.90;;;;;;4971532;28;20310;-77
2020/12/08 08:46:41;;;;;;;15.13;11.73;;;2.50;99.90;;;;;;4958902;28;20678;-78
2020/12/08 08:49:08;;;;;;;14.38;10.10;;;2.60;99.90;;;;;;4960647;28;20485;-77
2020/12/08 08:51:37;;;;;;;17.80;11.60;;;2.60;99.90;;;;;;4973070;28;20597;-77
2020/12/08 08:54:02;;;;;;;13.32;10.35;;;2.60;99.90;;;;;;4970604;28;20206;-77
2020/12/08 08:56:28;;;;;;;14.53;11.47;;;2.60;99.90;;;;;;4966912;28;20210;-77
2020/12/08 08:58:54;;;;;;;17.83;11.87;;;2.70;99.90;;;;;;4972075;28;20485;-77
2020/12/08 09:01:19;;;;;;;17.67;11.67;;;2.60;99.90;;;;;;4971829;28;20260;-77
2020/12/08 09:03:46;;;;;;;14.97;11.00;;;2.60;99.90;;;;;;4972834;28;20199;-77
2020/12/08 09:06:12;;;;;;;14.65;11.00;;;2.50;99.90;;;;;;4968292;28;20687;-77
2020/12/08 09:08:38;;;;;;;12.07;9.88;;;2.60;99.90;;;;;;4955525;28;20621;-77
2020/12/08 09:11:05;;;;;;;16.75;11.40;;;2.60;99.90;;;;;;4970929;28;20211;-78
2020/12/08 09:13:32;;;;;;;14.35;11.20;;;2.70;99.90;;;;;;4971975;28;20269;-77
2020/12/08 09:15:57;;;;;;;15.07;11.55;;;2.80;99.90;;;;;;4951988;28;20215;-78
2020/12/08 09:18:23;;;;;;;16.83;10.00;;;2.80;99.90;;;;;;4970634;28;20209;-77
2020/12/08 09:20:49;;;;;;;15.33;11.13;;;2.80;99.90;;;;;;4971598;28;20293;-77
2020/12/08 09:23:14;;;;;;;15.33;10.90;;;2.70;99.90;;;;;;4972174;28;20175;-76
2020/12/08 09:25:40;;;;;;;13.40;10.37;;;2.80;99.90;;;;;;4961965;28;20619;-77
2020/12/08 09:28:06;;;;;;;19.90;10.93;;;2.70;99.90;;;;;;4969344;28;20207;-77
2020/12/08 09:30:32;;;;;;;12.03;10.70;;;2.70;99.90;;;;;;4971647;28;21002;-77
2020/12/08 09:32:57;;;;;;;14.03;10.83;;;2.70;99.90;;;;;;4972208;28;20422;-77
2020/12/08 09:35:23;;;;;;;13.33;11.20;;;2.70;99.90;;;;;;4967891;28;20216;-77
2020/12/08 09:37:49;;;;;;;14.37;11.90;;;2.70;99.90;;;;;;4965842;28;20546;-78
2020/12/08 09:40:14;;;;;;;15.27;11.37;;;2.90;99.90;;;;;;4971291;28;20207;-77
2020/12/08 09:42:42;;;;;;;14.57;11.17;;;2.90;99.90;;;;;;4971774;28;20175;-77
2020/12/08 09:45:08;;;;;;;15.13;12.35;;;2.80;99.90;;;;;;4957424;28;20222;-76
2020/12/08 09:47:35;;;;;;;15.30;12.38;;;2.80;99.90;;;;;;4970273;28;20213;-77
2020/12/08 09:50:05;;;;;;;14.50;11.27;;;2.80;99.90;;;;;;4971402;28;20222;-77
2020/12/08 09:52:31;;;;;;;15.93;13.00;;;3.00;99.90;;;;;;4971828;28;20167;-77
2020/12/08 09:54:57;;;;;;;17.73;12.23;;;3.10;99.90;;;;;;4971698;28;20273;-76
2020/12/08 09:57:24;;;;;;;14.90;11.02;;;3.20;99.90;;;;;;4960663;28;20187;-76
2020/12/08 09:59:51;;;;;;;13.95;10.70;;;3.30;99.90;;;;;;4971653;28;20314;-76
2020/12/08 10:02:18;;;;;;;16.08;11.45;;;3.40;99.90;;;;;;4971986;28;20286;-76
2020/12/08 10:04:44;;;;;;;15.70;11.10;;;3.50;99.90;;;;;;4970437;28;20215;-77
2020/12/08 10:07:14;;;;;;;18.13;13.17;;;3.50;99.90;;;;;;4966114;28;20749;-77
2020/12/08 10:09:42;;;;;;;15.85;11.65;;;3.50;99.90;;;;;;4970999;28;20452;-77
2020/12/08 10:12:08;;;;;;;16.45;12.40;;;3.50;99.90;;;;;;4970499;28;20677;-77
2020/12/08 10:14:34;;;;;;;17.80;12.32;;;3.50;99.90;;;;;;4969566;28;20245;-77
2020/12/08 10:17:00;;;;;;;15.18;11.40;;;3.50;99.90;;;;;;4951227;28;20183;-77
2020/12/08 10:19:26;;;;;;;14.73;10.97;;;3.60;99.90;;;;;;4973725;28;20246;-77
2020/12/08 10:21:55;;;;;;;17.33;12.03;;;3.50;99.90;;;;;;4974908;28;20199;-76
2020/12/08 10:24:21;;;;;;;14.13;11.18;;;3.60;99.90;;;;;;4970944;28;20216;-77
2020/12/08 10:26:47;;;;;;;12.10;10.43;;;3.60;99.90;;;;;;4966799;28;20523;-77
2020/12/08 10:29:13;;;;;;;16.40;11.17;;;3.50;99.90;;;;;;4974640;28;20222;-77
2020/12/08 10:31:39;;;;;;;16.30;11.48;;;3.50;99.90;;;;;;4975043;28;20617;-77
2020/12/08 10:34:05;;;;;;;15.70;11.13;;;3.50;99.90;;;;;;4971811;28;20275;-76
2020/12/08 10:36:31;;;;;;;15.98;11.68;;;3.50;99.90;;;;;;4969602;28;20436;-76
2020/12/08 10:38:56;;;;;;;16.20;11.97;;;3.50;99.90;;;;;;4957162;28;20206;-76
2020/12/08 10:41:24;;;;;;;17.77;11.27;;;3.50;99.90;;;;;;4975056;28;20190;-77
2020/12/08 10:43:50;;;;;;;16.25;10.80;;;3.60;99.90;;;;;;4975427;28;20454;-76
2020/12/08 10:46:16;;;;;;;17.40;12.17;;;3.60;99.90;;;;;;4967508;28;20645;-77
2020/12/08 10:48:42;;;;;;;20.63;14.27;;;3.60;99.90;;;;;;4971593;28;20667;-77
2020/12/08 10:51:08;;;;;;;17.38;12.05;;;3.60;99.90;;;;;;4974177;28;20460;-76
2020/12/08 10:53:35;;;;;;;16.35;12.02;;;3.70;99.90;;;;;;4967013;28;20665;-76
2020/12/08 10:56:00;;;;;;;17.45;13.68;;;3.60;99.90;;;;;;4963931;28;20216;-76
2020/12/08 10:58:26;;;;;;;18.63;13.17;;;3.70;99.90;;;;;;4974320;28;20562;-77
2020/12/08 11:00:51;;;;;;;17.53;11.87;;;3.70;99.90;;;;;;4973427;28;20756;-77
2020/12/08 11:03:17;;;;;;;17.10;13.40;;;3.70;99.90;;;;;;4953591;28;20648;-77
2020/12/08 11:05:43;;;;;;;18.83;12.70;;;3.70;99.90;;;;;;4972016;28;20215;-78
2020/12/08 11:08:36;;;;;;;17.13;12.73;;;3.80;99.90;;;;;;4970970;28;20183;-77
2020/12/08 11:11:02;;;;;;;17.77;12.90;;;3.80;99.90;;;;;;4974232;28;20290;-77
2020/12/08 11:13:31;;;;;;;22.80;14.23;;;3.70;99.90;;;;;;4970172;23;20653;-77
2020/12/08 11:15:58;;;;;;;20.98;14.00;;;3.80;99.90;;;;;;4973648;28;20249;-77
2020/12/08 11:18:24;;;;;;;20.65;13.85;;;4.00;99.90;;;;;;4975235;28;20199;-76
2020/12/08 11:20:50;;;;;;;19.10;14.17;;;4.00;99.90;;;;;;4974332;28;20211;-77
2020/12/08 11:23:16;;;;;;;18.87;13.80;;;4.00;99.90;;;;;;4975338;28;20172;-77
2020/12/08 11:25:41;;;;;;;19.07;13.13;;;4.10;99.90;;;;;;4974133;28;20462;-76
2020/12/08 11:28:07;;;;;;;16.73;11.70;;;4.20;99.90;;;;;;4983665;23;20309;-78
2020/12/08 11:30:35;;;;;;;19.90;14.10;;;4.20;99.90;;;;;;4973166;28;20690;-77
2020/12/08 11:33:00;;;;;;;18.40;12.98;;;4.20;99.90;;;;;;4974464;28;20215;-76
2020/12/08 11:35:26;;;;;;;19.57;13.23;;;4.10;99.90;;;;;;4964103;28;20241;-76
2020/12/08 11:37:51;;;;;;;15.90;12.10;;;4.20;99.90;;;;;;4973241;28;20232;-76
2020/12/08 11:40:17;;;;;;;20.50;13.83;;;4.20;99.90;;;;;;4973705;28;20211;-77
2020/12/08 11:42:43;;;;;;;20.00;13.07;;;4.30;99.90;;;;;;4973486;28;20167;-76
2020/12/08 11:45:12;;;;;;;19.27;12.80;;;4.20;99.90;;;;;;4984869;28;20203;-76
2020/12/08 11:47:38;;;;;;;19.63;14.38;;;4.20;99.90;;;;;;4970379;28;20186;-77
2020/12/08 11:50:05;;;;;;;20.20;15.10;;;4.10;99.90;;;;;;4973455;28;20677;-77
2020/12/08 11:52:30;;;;;;;19.08;13.43;;;4.10;99.90;;;;;;4972721;28;20241;-76
2020/12/08 11:54:56;;;;;;;19.10;14.63;;;4.00;99.90;;;;;;4971984;28;20302;-79
2020/12/08 11:57:22;;;;;;;16.23;13.53;;;4.00;99.90;;;;;;4961813;28;20663;-76
2020/12/08 11:59:47;;;;;;;19.80;14.07;;;4.00;99.90;;;;;;4955796;28;20278;-76
2020/12/08 12:02:13;;;;;;;20.27;13.67;;;4.00;99.90;;;;;;4973364;28;20187;-76
2020/12/08 12:04:39;;;;;;;21.80;14.20;;;4.00;99.90;;;;;;4972408;28;20215;-76
2020/12/08 12:07:04;;;;;;;23.10;15.13;;;4.10;99.90;;;;;;4971408;28;20242;-76
2020/12/08 12:09:30;;;;;;;20.73;13.97;;;4.20;99.90;;;;;;4972639;28;20215;-76
2020/12/08 12:11:56;;;;;;;21.53;13.37;;;4.20;99.90;;;;;;4973828;28;20210;-76
2020/12/08 12:14:21;;;;;;;19.00;13.80;;;4.20;99.90;;;;;;4972378;28;20286;-76
2020/12/08 12:16:47;;;;;;;18.77;14.17;;;4.20;99.90;;;;;;4972523;28;20642;-76
2020/12/08 12:19:13;;;;;;;18.47;13.40;;;4.20;99.90;;;;;;4973160;28;20631;-76
2020/12/08 12:21:39;;;;;;;20.30;13.67;;;4.30;99.90;;;;;;4973849;28;20892;-76
2020/12/08 12:24:04;;;;;;;17.00;13.30;;;4.30;99.90;;;;;;4955751;28;20179;-76
2020/12/08 12:26:30;;;;;;;19.80;14.33;;;4.30;99.90;;;;;;4966522;28;20199;-76
2020/12/08 12:28:56;;;;;;;19.50;13.63;;;4.30;99.90;;;;;;4969652;28;20202;-76
2020/12/08 12:31:22;;;;;;;20.10;13.50;;;4.30;99.90;;;;;;4973428;28;20210;-76
2020/12/08 12:33:49;;;;;;;19.90;13.90;;;4.40;99.90;;;;;;4973333;28;20172;-76
2020/12/08 12:36:14;;;;;;;17.88;12.80;;;4.30;99.90;;;;;;4967106;28;20463;-76
2020/12/08 12:38:40;;;;;;;20.17;13.67;;;4.30;99.90;;;;;;4972950;28;20199;-76